Flight ASX205X

  • Submitted By: Rafal Piotrowski
  • Departure Airport: Gdansk im. Lecha Walesy (EPGD)
  • Arrival Airport: Katowice Pyrzowice (EPKT)
  • Aircraft: D8Q400 (SP-WOD)
  • Flight Time: 01.20.05
  • Date Submitted: 11/11/2016
  • Route: IRLUN N133 NEGUV M66 KUKAM
  • Status: Accepted
Flight Details
Gross Revenue:
(67 load / € 80.00 per unit
€ 5,360.00
Fuel Cost:
(1072.75 fuel used @ 0.45 / unit)
€ 482.74

Additional Log Information:

View Log

[19:14] - MJC8Q400_Sioux Air SP-WOD
[19:14] - Flight ASX205X is ready to depart EPGD with a final destination of EPKT.
[19:14] - Parking Brake Applied
[19:14] - Navigation Lights ON
[19:14] - Instrument Lights ON
[19:14] - Logo Lights ON
[19:14] - Cabin Lights ON
[19:14] - Boarding
[19:14] - ADF1 - 284.0
[19:14] - ADF2 - 240.0
[19:14] - NAV1 - 110.30
[19:14] - NAV2 - 110.60
[19:14] - COM1 - 122.80
[19:14] - COM2 - 127.80
[19:14] - Transponder - 2100
[19:17] - Cabin Lights OFF 6AGL
[19:17] - Instrument Lights OFF 6AGL
[19:21] - Logo Lights OFF 6AGL
[19:21] - Parking Brake Released
[19:21] - Logo Lights ON 6AGL
[19:22] - Logo Lights OFF 6AGL
[19:22] - Logo Lights ON 6AGL
[19:22] - Parking Brake Applied
[19:23] - Flaps to position 1
[19:25] - Parking Brake Released
[19:26] - Simulator Paused
[19:26] - Simulator Un-Paused
[19:27] - Taxiing to Runway
[19:29] - Landing Lights ON 6AGL
[19:30] - Taking Off with 67 passengers on board
[19:31] - Take off at 141kts, with a pitch of 6deg and 2258kgs of fuel on board
[19:31] - Wind Heading 270 | Wind Speed 3kts | Temperature 0 deg C
[19:31] - METAR Departure: EPGD 111800Z 28002KT 9999 FEW023 BKN027 M00/M02 Q1022 R11/290195

[19:31] - Climbing to TOC
[19:32] - Flaps to position 0 at 3159ft and 171kts
[19:32] - AutoPilot Engaged at 3071AGL
[19:34] - Logo Lights OFF 9957AGL
[19:35] - Landing Lights OFF 10345AGL
[19:44] - TOC reached
[19:44] - Cruise started
[20:05] - Instrument Lights ON 24492AGL
[20:05] - Instrument Lights OFF 24492AGL
[20:08] - TOD reached
[20:08] - Descending to destination
[20:08] - NAV1 - 109.90
[20:18] - Landing Lights ON 8825AGL
[20:18] - Logo Lights ON 8347AGL
[20:21] - Landing Shortly
[20:23] - Flaps to position 1 at 4131ft and 193kts
[20:25] - Flaps to position 3 at 1768ft and 163kts
[20:26] - AutoPilot Disengaged at 410AGL
[20:26] - Landed at -195fpm. With 1331kgs of fuel onboard and a pitch angle of 1deg.
[20:26] - Wind Heading 350 | Wind Speed 3kts | Temperature 0 deg C
[20:26] - METAR Arrival: EPKT 111900Z 34003KT 310V020 4000 BR FEW007 SCT010 BKN023 01/M00 Q1019

[20:27] - Landing Lights OFF 10AGL
[20:27] - Flaps to position 0
[20:27] - Taxiing to Gate
[20:28] - Instrument Lights ON 10AGL
[20:28] - Instrument Lights OFF 10AGL
[20:31] - Parking Brake Applied
[20:31] - Arrived safely at EPKT. We hope you enjoyed your flight!
[20:32] - Instrument Lights ON 10AGL
[20:32] - Instrument Lights OFF 10AGL
[20:35] - MJC8Q400_Sioux Air SP-WOD
[20:35] - MaxSim Rate: 1x
[20:35] - SiouxAcars ver: 1.0.1.2

Route Map